Time;durP1;ratioP1;P1;durP2;ratioP2;P2;SDS_P1;SDS_P2;PMS_P1;PMS_P2;Temp;Humidity;BMP_temperature;BMP_pressure;BME280_temperature;BME280_humidity;BME280_pressure;Samples;Min_cycle;Max_cycle;Signal;HPM_P1;HPM_P2
2022/07/19 00:01:41;;;;;;;12.00;7.80;;;17.70;99.90;;;;;;5053387;28;20068;-72
2022/07/19 00:04:07;;;;;;;12.68;8.30;;;17.70;99.90;;;;;;5052068;28;20053;-73
2022/07/19 00:06:33;;;;;;;13.52;8.65;;;17.70;99.90;;;;;;5039099;28;20534;-72
2022/07/19 00:08:59;;;;;;;18.30;9.52;;;17.60;99.90;;;;;;5051171;28;20041;-73
2022/07/19 00:11:25;;;;;;;13.18;8.13;;;17.60;99.90;;;;;;5052562;28;20163;-72
2022/07/19 00:13:51;;;;;;;12.02;8.88;;;17.60;99.90;;;;;;5031080;28;20535;-72
2022/07/19 00:16:17;;;;;;;12.73;9.50;;;17.60;99.90;;;;;;5011689;28;20272;-72
2022/07/19 00:18:43;;;;;;;13.60;8.80;;;17.50;99.90;;;;;;5009768;28;20416;-72
2022/07/19 00:21:08;;;;;;;10.82;8.52;;;17.50;99.90;;;;;;5033204;28;20049;-72
2022/07/19 00:23:34;;;;;;;13.55;8.43;;;17.50;99.90;;;;;;5035106;28;20052;-72
2022/07/19 00:26:01;;;;;;;12.85;8.93;;;17.40;99.90;;;;;;5038358;28;20459;-72
2022/07/19 00:28:27;;;;;;;11.52;8.65;;;17.40;99.90;;;;;;5034899;28;20053;-72
2022/07/19 00:30:53;;;;;;;11.13;8.57;;;17.40;99.90;;;;;;5051684;28;20143;-71
2022/07/19 00:33:19;;;;;;;12.32;8.48;;;17.40;99.90;;;;;;5050915;28;20095;-72
2022/07/19 00:35:44;;;;;;;12.52;8.70;;;17.40;99.90;;;;;;5036746;28;20058;-72
2022/07/19 00:38:12;;;;;;;11.82;8.77;;;17.40;99.90;;;;;;5017426;28;20117;-72
2022/07/19 00:40:40;;;;;;;13.52;8.05;;;17.40;99.90;;;;;;5032700;28;20045;-72
2022/07/19 00:43:07;;;;;;;11.77;8.55;;;17.30;99.90;;;;;;5040452;28;20076;-72
2022/07/19 00:45:36;;;;;;;12.43;8.40;;;17.30;99.90;;;;;;5050313;28;20554;-72
2022/07/19 00:48:02;;;;;;;10.95;8.32;;;17.30;99.90;;;;;;5015963;28;20041;-72
2022/07/19 00:50:28;;;;;;;11.55;8.63;;;17.30;99.90;;;;;;5046756;28;20061;-72
2022/07/19 00:53:00;;;;;;;12.25;8.30;;;17.30;99.90;;;;;;5050077;28;20488;-72
2022/07/19 00:55:28;;;;;;;11.90;9.05;;;17.30;99.90;;;;;;5052747;28;20049;-72
2022/07/19 00:57:55;;;;;;;9.65;7.80;;;17.30;99.90;;;;;;5034466;28;20048;-72
2022/07/19 01:00:21;;;;;;;10.80;8.75;;;17.30;99.90;;;;;;5037640;28;20058;-72
2022/07/19 01:02:47;;;;;;;11.20;8.93;;;17.20;99.90;;;;;;5037799;28;20416;-72
2022/07/19 01:05:13;;;;;;;12.50;7.70;;;17.30;99.90;;;;;;5052145;28;20059;-72
2022/07/19 01:07:40;;;;;;;12.68;8.45;;;17.20;99.90;;;;;;5035158;28;20051;-72
2022/07/19 01:10:08;;;;;;;11.88;8.93;;;17.20;99.90;;;;;;5051781;28;20373;-72
2022/07/19 01:12:34;;;;;;;13.35;8.05;;;17.20;99.90;;;;;;5051214;28;20504;-72
2022/07/19 01:15:01;;;;;;;14.25;8.23;;;17.20;99.90;;;;;;5054185;28;20059;-71
2022/07/19 01:17:27;;;;;;;14.90;8.82;;;17.20;99.90;;;;;;5014536;28;20045;-72
2022/07/19 01:19:53;;;;;;;12.52;8.35;;;17.20;99.90;;;;;;5046501;28;20057;-71
2022/07/19 01:22:19;;;;;;;12.70;8.50;;;17.20;99.90;;;;;;5038562;28;20491;-72
2022/07/19 01:24:45;;;;;;;10.60;8.80;;;17.20;99.90;;;;;;5043600;28;20053;-72
2022/07/19 01:27:10;;;;;;;13.43;8.43;;;17.20;99.90;;;;;;5034311;28;20053;-71
2022/07/19 01:29:37;;;;;;;11.13;8.38;;;17.20;99.90;;;;;;5051228;28;20084;-72
2022/07/19 01:32:06;;;;;;;13.95;8.43;;;17.10;99.90;;;;;;5039840;28;20531;-68
2022/07/19 01:34:32;;;;;;;12.73;8.63;;;17.20;99.90;;;;;;5043534;28;20067;-72
2022/07/19 01:36:58;;;;;;;10.55;7.85;;;17.10;99.90;;;;;;5016797;28;20049;-72
2022/07/19 01:39:24;;;;;;;11.50;7.72;;;17.10;99.90;;;;;;5034267;28;20044;-72
2022/07/19 01:41:49;;;;;;;15.32;8.10;;;17.10;99.90;;;;;;5051030;28;20076;-72
2022/07/19 01:44:15;;;;;;;10.13;7.95;;;17.10;99.90;;;;;;5034658;28;20492;-72
2022/07/19 01:46:41;;;;;;;10.15;7.57;;;17.00;99.90;;;;;;5026175;28;20987;-73
2022/07/19 01:49:06;;;;;;;10.05;7.00;;;17.00;99.90;;;;;;5028929;28;20090;-72
2022/07/19 01:51:32;;;;;;;13.25;7.35;;;17.00;99.90;;;;;;5031892;28;20045;-72
2022/07/19 01:53:58;;;;;;;11.13;7.50;;;17.00;99.90;;;;;;5040317;28;20092;-73
2022/07/19 01:56:24;;;;;;;10.18;8.05;;;17.00;99.90;;;;;;5026731;28;20583;-72
2022/07/19 01:58:49;;;;;;;12.43;8.70;;;16.90;99.90;;;;;;5032442;28;20084;-72
2022/07/19 02:01:15;;;;;;;11.60;8.65;;;16.90;99.90;;;;;;5051179;28;20086;-72
2022/07/19 02:03:40;;;;;;;11.82;8.57;;;16.80;99.90;;;;;;5048444;28;20120;-72
2022/07/19 02:06:07;;;;;;;10.85;7.43;;;16.80;99.90;;;;;;5035114;28;20087;-73
2022/07/19 02:08:32;;;;;;;10.68;8.20;;;16.80;99.90;;;;;;5040379;28;20569;-72
2022/07/19 02:11:34;;;;;;;12.45;7.97;;;16.80;99.90;;;;;;5049291;28;20049;-72
2022/07/19 02:13:47;;;;;;;9.65;7.40;;;16.70;99.90;;;;;;5050208;28;20044;-72
2022/07/19 02:16:13;;;;;;;9.40;7.15;;;16.80;99.90;;;;;;5033887;28;20140;-72
2022/07/19 02:18:38;;;;;;;9.65;7.60;;;16.80;99.90;;;;;;5042774;28;20132;-72
2022/07/19 02:21:04;;;;;;;14.93;7.65;;;16.80;99.90;;;;;;5049006;28;20048;-72
2022/07/19 02:23:30;;;;;;;10.50;7.40;;;16.80;99.90;;;;;;5032545;28;20473;-72
2022/07/19 02:25:55;;;;;;;13.20;7.82;;;16.80;99.90;;;;;;5022104;28;20055;-72
2022/07/19 02:28:21;;;;;;;13.60;7.72;;;16.80;99.90;;;;;;5032627;28;20047;-72
2022/07/19 02:30:47;;;;;;;11.45;7.57;;;16.90;99.90;;;;;;5049349;28;20075;-72
2022/07/19 02:33:12;;;;;;;11.88;7.70;;;16.80;99.90;;;;;;5047211;28;20057;-72
2022/07/19 02:35:38;;;;;;;10.55;7.50;;;16.80;99.90;;;;;;5036475;28;20479;-72
2022/07/19 02:38:04;;;;;;;11.32;7.80;;;16.70;99.90;;;;;;5013840;28;20041;-72
2022/07/19 02:40:30;;;;;;;9.27;7.22;;;16.70;99.90;;;;;;5043646;28;20040;-72
2022/07/19 02:42:55;;;;;;;12.73;7.18;;;16.60;99.90;;;;;;5043353;28;20052;-73
2022/07/19 02:45:21;;;;;;;15.13;7.72;;;16.60;99.90;;;;;;5036224;28;20622;-72
2022/07/19 02:47:47;;;;;;;10.60;7.38;;;16.60;99.90;;;;;;5013977;28;20053;-72
2022/07/19 02:50:13;;;;;;;11.75;7.68;;;16.60;99.90;;;;;;5029335;28;20045;-72
2022/07/19 02:52:38;;;;;;;11.85;7.75;;;16.60;99.90;;;;;;5043483;28;20098;-72
2022/07/19 02:55:06;;;;;;;11.18;7.97;;;16.60;99.90;;;;;;5028818;28;20477;-72
2022/07/19 02:57:31;;;;;;;11.80;7.47;;;16.50;99.90;;;;;;5032420;28;20124;-72
2022/07/19 02:59:57;;;;;;;8.98;7.05;;;16.50;99.90;;;;;;5050191;28;20119;-73
2022/07/19 03:02:23;;;;;;;9.82;7.35;;;16.50;99.90;;;;;;5048503;28;20377;-72
2022/07/19 03:04:49;;;;;;;12.07;7.32;;;16.60;99.90;;;;;;5050352;28;20037;-73
2022/07/19 03:07:15;;;;;;;10.98;7.13;;;16.50;99.90;;;;;;5034496;28;20052;-72
2022/07/19 03:09:41;;;;;;;8.82;7.47;;;16.50;99.90;;;;;;5049609;28;20041;-73
2022/07/19 03:12:06;;;;;;;10.25;7.45;;;16.50;99.90;;;;;;5047940;28;20123;-71
2022/07/19 03:14:32;;;;;;;10.88;6.95;;;16.40;99.90;;;;;;5052077;28;20191;-73
2022/07/19 03:16:58;;;;;;;12.75;7.45;;;16.50;99.90;;;;;;5017600;28;20500;-72
2022/07/19 03:19:26;;;;;;;9.45;6.78;;;16.50;99.90;;;;;;5028914;28;20048;-73
2022/07/19 03:21:55;;;;;;;13.65;7.38;;;16.40;99.90;;;;;;5031668;28;20495;-73
2022/07/19 03:24:21;;;;;;;10.32;7.05;;;16.50;99.90;;;;;;5047637;28;20423;-74
2022/07/19 03:26:46;;;;;;;11.48;7.93;;;16.50;99.90;;;;;;5030506;28;20041;-72
2022/07/19 03:29:12;;;;;;;11.80;6.95;;;16.40;99.90;;;;;;5035805;28;20057;-73
2022/07/19 03:31:38;;;;;;;9.55;7.18;;;16.30;99.90;;;;;;5028561;28;20124;-73
2022/07/19 03:34:03;;;;;;;9.55;7.32;;;16.40;99.90;;;;;;5029273;28;20404;-73
2022/07/19 03:36:29;;;;;;;9.95;6.97;;;16.40;99.90;;;;;;5038235;28;20045;-72
2022/07/19 03:38:56;;;;;;;9.57;7.07;;;16.40;99.90;;;;;;5034694;28;20045;-72
2022/07/19 03:41:22;;;;;;;12.05;7.97;;;16.40;99.90;;;;;;5028455;28;20125;-73
2022/07/19 03:43:48;;;;;;;12.07;7.35;;;16.40;99.90;;;;;;5042849;28;20132;-73
2022/07/19 03:46:13;;;;;;;9.48;6.32;;;16.40;99.90;;;;;;5033089;28;20423;-73
2022/07/19 03:48:39;;;;;;;10.32;6.82;;;16.40;99.90;;;;;;5021368;28;20073;-73
2022/07/19 03:51:05;;;;;;;11.18;7.25;;;16.40;99.90;;;;;;5047353;28;20055;-73
2022/07/19 03:53:31;;;;;;;8.80;6.93;;;16.40;99.90;;;;;;5049119;28;20110;-73
2022/07/19 03:55:56;;;;;;;10.07;7.22;;;16.40;99.90;;;;;;5048164;28;20500;-73
2022/07/19 03:58:22;;;;;;;9.27;7.38;;;16.40;99.90;;;;;;5033757;28;20053;-72
2022/07/19 04:00:48;;;;;;;10.05;7.15;;;16.40;99.90;;;;;;5049718;28;20037;-73
2022/07/19 04:03:13;;;;;;;10.80;6.60;;;16.40;99.90;;;;;;5047775;28;20041;-74
2022/07/19 04:05:39;;;;;;;10.52;7.05;;;16.40;99.90;;;;;;5048746;28;20092;-74
2022/07/19 04:08:05;;;;;;;8.93;6.25;;;16.40;99.90;;;;;;5031707;28;20105;-74
2022/07/19 04:10:30;;;;;;;11.60;6.80;;;16.40;99.90;;;;;;5048770;28;20073;-74
2022/07/19 04:12:56;;;;;;;8.02;6.72;;;16.50;99.90;;;;;;5048707;28;20087;-73
2022/07/19 04:15:22;;;;;;;9.10;6.38;;;16.50;99.90;;;;;;5048447;28;20144;-75
2022/07/19 04:17:47;;;;;;;9.02;6.90;;;16.50;99.90;;;;;;5023209;28;20064;-73
2022/07/19 04:20:13;;;;;;;9.27;7.07;;;16.50;99.90;;;;;;5031911;28;20492;-73
2022/07/19 04:22:39;;;;;;;9.35;6.53;;;16.50;99.90;;;;;;5038679;28;20098;-74
2022/07/19 04:25:05;;;;;;;7.72;6.63;;;16.50;99.90;;;;;;5029601;28;20045;-74
2022/07/19 04:27:31;;;;;;;11.70;6.82;;;16.60;99.90;;;;;;5024953;28;20179;-74
2022/07/19 04:29:57;;;;;;;10.13;6.57;;;16.60;99.90;;;;;;5048996;28;20136;-73
2022/07/19 04:32:23;;;;;;;8.43;6.35;;;16.70;99.90;;;;;;5064945;28;20055;-73
2022/07/19 04:34:49;;;;;;;8.45;6.75;;;16.70;99.90;;;;;;5044198;28;20058;-73
2022/07/19 04:37:15;;;;;;;9.40;7.00;;;16.70;99.90;;;;;;5021822;28;20498;-73
2022/07/19 04:39:41;;;;;;;11.15;6.88;;;16.80;99.90;;;;;;5044715;28;20041;-74
2022/07/19 04:42:07;;;;;;;9.80;7.75;;;16.80;99.90;;;;;;5044718;28;20515;-74
2022/07/19 04:44:33;;;;;;;9.48;7.40;;;16.90;99.90;;;;;;5035896;28;20045;-73
2022/07/19 04:46:58;;;;;;;10.15;7.43;;;17.00;99.90;;;;;;5034071;28;20049;-73
2022/07/19 04:49:24;;;;;;;10.80;7.10;;;17.10;99.90;;;;;;5032725;28;20053;-73
2022/07/19 04:51:50;;;;;;;8.40;6.85;;;17.20;99.90;;;;;;5031679;28;20053;-74
2022/07/19 04:54:15;;;;;;;8.55;6.80;;;17.20;99.90;;;;;;5031850;28;20050;-73
2022/07/19 04:56:41;;;;;;;13.93;7.28;;;17.30;99.90;;;;;;5018874;28;20041;-73
2022/07/19 04:59:07;;;;;;;11.77;6.68;;;17.40;99.90;;;;;;5032570;28;20059;-73
2022/07/19 05:01:34;;;;;;;11.45;6.80;;;17.50;99.90;;;;;;5045425;28;20454;-74
2022/07/19 05:03:59;;;;;;;10.38;6.80;;;17.60;99.90;;;;;;5038315;28;20037;-74
2022/07/19 05:06:25;;;;;;;10.65;7.03;;;17.70;99.90;;;;;;5027561;28;20610;-74
2022/07/19 05:08:52;;;;;;;13.15;6.57;;;17.80;99.90;;;;;;5030872;28;20045;-73
2022/07/19 05:11:18;;;;;;;9.15;6.70;;;17.90;99.90;;;;;;5030505;28;20049;-73
2022/07/19 05:13:44;;;;;;;11.55;6.72;;;18.00;99.90;;;;;;5030530;28;20048;-73
2022/07/19 05:16:10;;;;;;;10.27;6.07;;;18.10;99.90;;;;;;5031477;28;20049;-73
2022/07/19 05:18:36;;;;;;;8.90;6.30;;;18.20;99.90;;;;;;5022176;28;20052;-74
2022/07/19 05:21:02;;;;;;;12.00;7.05;;;18.30;99.90;;;;;;5048300;28;20483;-73
2022/07/19 05:23:27;;;;;;;8.43;6.18;;;18.50;99.90;;;;;;5034397;28;20041;-73
2022/07/19 05:25:53;;;;;;;9.23;6.78;;;18.50;99.90;;;;;;5051683;28;20523;-73
2022/07/19 05:28:19;;;;;;;10.02;6.53;;;18.70;99.90;;;;;;5035946;28;20072;-74
2022/07/19 05:30:45;;;;;;;10.40;6.32;;;18.90;99.90;;;;;;5051117;28;20131;-74
2022/07/19 05:33:10;;;;;;;11.65;6.03;;;19.00;99.90;;;;;;5049467;28;20052;-72
2022/07/19 05:35:37;;;;;;;13.55;6.43;;;19.10;99.90;;;;;;5037427;28;20065;-71
2022/07/19 05:38:03;;;;;;;12.68;5.90;;;19.20;99.90;;;;;;5035388;28;20049;-72
2022/07/19 05:40:28;;;;;;;10.50;6.15;;;19.30;99.90;;;;;;5050545;28;20493;-72
2022/07/19 05:42:54;;;;;;;12.88;6.50;;;19.40;99.90;;;;;;5031039;28;20144;-71
2022/07/19 05:45:19;;;;;;;9.98;5.95;;;19.50;99.90;;;;;;5038358;28;20124;-72
2022/07/19 05:47:45;;;;;;;8.77;5.75;;;19.60;99.90;;;;;;5017089;28;20071;-72
2022/07/19 05:50:11;;;;;;;8.65;5.75;;;19.70;99.90;;;;;;5031279;28;20041;-71
2022/07/19 05:52:36;;;;;;;11.52;5.93;;;19.80;99.90;;;;;;5031159;28;20120;-72
2022/07/19 05:55:02;;;;;;;10.05;6.25;;;19.90;99.90;;;;;;5040966;28;20510;-71
2022/07/19 05:57:28;;;;;;;8.77;5.47;;;20.10;99.90;;;;;;5015036;28;20051;-71
2022/07/19 05:59:54;;;;;;;11.30;6.03;;;20.20;99.90;;;;;;5028910;28;20131;-71
2022/07/19 06:02:20;;;;;;;7.25;5.53;;;20.30;99.90;;;;;;5039343;28;20049;-72
2022/07/19 06:04:46;;;;;;;7.53;5.07;;;20.40;99.90;;;;;;5053131;28;20032;-72
2022/07/19 06:07:11;;;;;;;8.07;5.03;;;20.50;99.90;;;;;;5019938;28;20178;-72
2022/07/19 06:09:37;;;;;;;7.05;5.15;;;20.70;99.90;;;;;;5038137;28;20045;-72
2022/07/19 06:12:03;;;;;;;10.30;5.40;;;20.80;99.90;;;;;;5037033;28;20060;-72
2022/07/19 06:14:28;;;;;;;11.18;5.50;;;20.90;99.90;;;;;;5038816;28;20045;-73
2022/07/19 06:16:54;;;;;;;9.68;5.30;;;21.00;99.90;;;;;;5021901;28;20060;-72
2022/07/19 06:19:20;;;;;;;8.25;5.50;;;21.00;99.90;;;;;;5037820;28;20373;-73
2022/07/19 06:21:46;;;;;;;7.07;5.03;;;21.10;99.90;;;;;;5038372;28;20041;-73
2022/07/19 06:24:11;;;;;;;8.27;5.35;;;21.20;99.90;;;;;;5038596;28;20656;-73
2022/07/19 06:26:37;;;;;;;6.68;4.60;;;21.30;99.90;;;;;;5026360;28;20556;-73
2022/07/19 06:29:04;;;;;;;12.13;5.30;;;21.40;99.90;;;;;;5033488;28;20048;-73
2022/07/19 06:31:29;;;;;;;6.50;4.68;;;21.40;99.90;;;;;;5044165;28;20044;-73
2022/07/19 06:33:55;;;;;;;7.10;4.50;;;21.50;99.90;;;;;;5032883;28;20385;-73
2022/07/19 06:36:21;;;;;;;9.32;5.00;;;21.60;99.90;;;;;;5029429;28;20055;-73
2022/07/19 06:38:47;;;;;;;7.35;4.38;;;21.70;99.90;;;;;;5047094;28;20088;-73
2022/07/19 06:41:14;;;;;;;9.55;4.82;;;21.80;99.90;;;;;;5032451;28;20393;-73
2022/07/19 06:43:40;;;;;;;7.25;4.53;;;21.90;99.90;;;;;;5040639;28;20037;-73
2022/07/19 06:46:07;;;;;;;9.10;4.45;;;21.90;99.90;;;;;;5033535;28;20501;-75
2022/07/19 06:48:33;;;;;;;6.45;4.60;;;22.00;99.90;;;;;;5020135;28;20080;-73
2022/07/19 06:50:58;;;;;;;10.88;4.97;;;22.10;99.90;;;;;;5037521;28;20072;-73
2022/07/19 06:53:24;;;;;;;11.50;4.78;;;22.10;99.90;;;;;;5037643;28;20051;-73
2022/07/19 06:55:50;;;;;;;9.20;4.50;;;22.30;99.90;;;;;;5033806;28;20060;-74
2022/07/19 06:58:16;;;;;;;6.70;4.22;;;22.30;99.90;;;;;;5034872;28;20059;-74
2022/07/19 07:00:42;;;;;;;9.65;4.40;;;22.40;99.90;;;;;;5036534;28;20040;-73
2022/07/19 07:03:08;;;;;;;9.38;4.00;;;22.50;99.90;;;;;;5036054;28;20552;-74
2022/07/19 07:05:34;;;;;;;8.27;4.13;;;22.50;99.90;;;;;;5037395;28;20519;-74
2022/07/19 07:08:00;;;;;;;5.10;3.92;;;22.60;99.90;;;;;;5021526;28;20071;-73
2022/07/19 07:10:26;;;;;;;8.05;4.45;;;22.70;99.90;;;;;;5039905;28;20111;-74
2022/07/19 07:12:51;;;;;;;9.27;4.03;;;22.80;99.90;;;;;;5020982;28;20037;-73
2022/07/19 07:15:17;;;;;;;7.43;4.22;;;22.80;99.90;;;;;;5049433;28;20103;-74
2022/07/19 07:17:43;;;;;;;5.72;4.18;;;22.90;99.90;;;;;;5021015;28;20079;-73
2022/07/19 07:20:09;;;;;;;5.55;3.78;;;23.00;99.90;;;;;;5029910;28;20041;-73
2022/07/19 07:22:36;;;;;;;6.90;4.30;;;23.10;99.90;;;;;;5029652;28;20488;-74
2022/07/19 07:25:03;;;;;;;7.88;4.18;;;23.10;99.90;;;;;;5043897;28;20564;-74
2022/07/19 07:27:28;;;;;;;5.88;3.92;;;23.20;99.90;;;;;;5030033;28;20038;-72
2022/07/19 07:29:54;;;;;;;5.70;4.30;;;23.30;99.90;;;;;;5049416;28;20055;-74
2022/07/19 07:32:20;;;;;;;7.70;4.38;;;23.30;99.90;;;;;;5047272;28;20048;-74
2022/07/19 07:34:46;;;;;;;5.05;3.65;;;23.40;99.90;;;;;;5041451;28;20115;-74
2022/07/19 07:37:12;;;;;;;7.57;3.50;;;23.50;99.90;;;;;;5013334;28;20048;-74
2022/07/19 07:39:38;;;;;;;8.15;3.88;;;23.60;99.90;;;;;;5036313;28;20045;-74
2022/07/19 07:42:04;;;;;;;6.18;4.07;;;23.60;99.90;;;;;;5035932;28;20049;-72
2022/07/19 07:44:31;;;;;;;9.35;4.00;;;23.70;99.90;;;;;;5036806;28;20079;-73
2022/07/19 07:46:57;;;;;;;8.50;3.90;;;23.80;99.90;;;;;;5021610;28;20049;-74
2022/07/19 07:49:22;;;;;;;10.40;3.67;;;24.00;99.90;;;;;;5034793;28;20091;-74
2022/07/19 07:51:48;;;;;;;6.18;3.60;;;24.20;99.90;;;;;;5050284;28;20175;-73
2022/07/19 07:54:14;;;;;;;7.20;3.50;;;24.10;99.90;;;;;;5037542;28;20099;-73
2022/07/19 07:56:40;;;;;;;7.53;3.40;;;24.20;99.90;;;;;;5022826;28;20041;-75
2022/07/19 07:59:05;;;;;;;5.38;3.08;;;24.30;99.90;;;;;;5031638;28;20045;-73
2022/07/19 08:01:31;;;;;;;7.60;3.80;;;24.40;99.90;;;;;;5034431;28;20052;-74
2022/07/19 08:03:57;;;;;;;6.53;3.47;;;24.50;99.90;;;;;;5033243;28;20103;-74
2022/07/19 08:06:23;;;;;;;10.07;3.60;;;24.70;99.90;;;;;;5024393;28;20045;-74
2022/07/19 08:08:49;;;;;;;5.95;3.17;;;24.90;99.90;;;;;;5032329;28;20091;-73
2022/07/19 08:11:14;;;;;;;4.55;2.83;;;24.90;99.90;;;;;;5027652;28;20056;-75
2022/07/19 08:13:40;;;;;;;6.28;3.20;;;25.00;99.90;;;;;;5039995;28;20048;-75
2022/07/19 08:16:06;;;;;;;5.40;2.75;;;25.10;99.90;;;;;;5043520;28;20060;-74
2022/07/19 08:18:33;;;;;;;5.47;2.92;;;25.40;99.90;;;;;;5020853;28;20390;-74
2022/07/19 08:20:59;;;;;;;7.22;3.22;;;25.40;99.90;;;;;;5032104;28;20045;-74
2022/07/19 08:23:25;;;;;;;4.57;2.80;;;25.40;99.90;;;;;;5034729;28;20045;-74
2022/07/19 08:25:50;;;;;;;5.70;2.65;;;25.40;99.90;;;;;;5033408;28;20072;-74
2022/07/19 08:28:16;;;;;;;4.18;2.80;;;25.40;99.90;;;;;;5019842;28;20432;-74
2022/07/19 08:30:42;;;;;;;4.07;2.45;;;25.50;99.90;;;;;;5041535;28;20084;-74
2022/07/19 08:33:09;;;;;;;10.82;2.67;;;25.70;99.90;;;;;;5037110;28;20120;-74
2022/07/19 08:35:36;;;;;;;7.00;2.90;;;25.70;99.90;;;;;;5039182;28;20045;-74
2022/07/19 08:38:01;;;;;;;3.85;2.72;;;25.70;99.90;;;;;;5015945;28;20049;-74
2022/07/19 08:40:27;;;;;;;6.50;2.60;;;25.80;99.90;;;;;;5045442;28;20048;-73
2022/07/19 08:42:56;;;;;;;4.70;2.40;;;26.00;99.90;;;;;;5036583;28;20044;-74
2022/07/19 08:45:23;;;;;;;4.10;2.65;;;26.00;99.90;;;;;;5043633;28;20072;-75
2022/07/19 08:47:49;;;;;;;5.25;2.67;;;26.20;99.90;;;;;;5017407;28;20038;-74
2022/07/19 08:50:15;;;;;;;5.57;2.70;;;26.30;99.90;;;;;;5039188;28;20049;-74
2022/07/19 08:52:41;;;;;;;4.15;2.35;;;26.40;99.90;;;;;;5044358;28;20051;-75
2022/07/19 08:55:08;;;;;;;4.43;2.78;;;26.60;99.90;;;;;;5046032;28;20049;-74
2022/07/19 09:00:18;;;;;;;5.45;2.10;;;26.80;99.90;;;;;;5041420;28;20076;-73
2022/07/19 09:02:52;;;;;;;4.28;2.20;;;27.00;99.90;;;;;;5040120;28;20095;-74
2022/07/19 09:05:18;;;;;;;6.80;2.60;;;27.10;99.90;;;;;;5041919;28;20101;-74
2022/07/19 09:08:07;;;;;;;6.25;2.13;;;27.20;99.90;;;;;;5034986;28;20057;-74
2022/07/19 09:10:35;;;;;;;6.05;2.13;;;27.30;99.90;;;;;;5051556;28;20076;-74
2022/07/19 09:13:08;;;;;;;4.97;2.50;;;27.40;99.90;;;;;;5049632;28;20450;-74
2022/07/19 09:15:37;;;;;;;4.85;2.25;;;27.50;99.90;;;;;;5050389;28;20132;-74
2022/07/19 09:18:30;;;;;;;6.60;2.50;;;27.60;99.90;;;;;;5021459;28;20054;-73
2022/07/19 09:21:00;;;;;;;5.05;2.30;;;27.80;99.90;;;;;;5034765;28;20127;-74
2022/07/19 09:23:26;;;;;;;;;;;28.10;99.90;;;;;;5058380;28;20045;-74
2022/07/19 09:25:54;;;;;;;4.85;2.13;;;28.20;99.90;;;;;;5037824;28;19932;-75
2022/07/19 09:28:23;;;;;;;4.55;2.10;;;28.20;99.90;;;;;;5019918;28;20048;-75
2022/07/19 09:30:54;;;;;;;4.35;2.25;;;28.40;99.90;;;;;;5039905;28;20045;-74
2022/07/19 09:33:23;;;;;;;5.43;2.40;;;28.30;99.90;;;;;;5045897;28;20049;-75
2022/07/19 09:35:56;;;;;;;4.88;2.20;;;28.30;99.90;;;;;;5038883;28;20416;-75
2022/07/19 09:38:29;;;;;;;4.72;1.90;;;28.40;99.90;;;;;;5025768;28;20076;-74
2022/07/19 09:41:18;;;;;;;6.15;2.08;;;28.50;99.90;;;;;;5038678;28;20058;-74
2022/07/19 09:43:58;;;;;;;4.57;2.20;;;28.60;99.90;;;;;;5046479;28;20116;-75
2022/07/19 09:46:31;;;;;;;4.30;1.88;;;28.80;99.90;;;;;;5026343;28;20506;-74
2022/07/19 09:49:09;;;;;;;5.32;1.63;;;28.90;98.80;;;;;;5037606;28;20045;-75
2022/07/19 09:51:37;;;;;;;4.03;1.65;;;29.00;97.90;;;;;;5041682;28;20084;-75
2022/07/19 09:54:04;;;;;;;8.23;1.63;;;29.10;97.10;;;;;;5046378;28;20083;-74
2022/07/19 09:56:31;;;;;;;3.80;1.70;;;29.20;96.50;;;;;;5023409;28;20045;-76
2022/07/19 09:58:58;;;;;;;3.92;1.80;;;29.10;97.40;;;;;;5036717;28;20049;-75
2022/07/19 10:01:28;;;;;;;3.33;1.70;;;29.20;97.00;;;;;;5040535;28;20041;-75
2022/07/19 10:04:02;;;;;;;5.57;1.95;;;29.40;98.20;;;;;;5036659;28;20052;-76
2022/07/19 10:06:28;;;;;;;2.90;1.33;;;29.50;93.60;;;;;;5026737;28;20048;-75
2022/07/19 10:08:55;;;;;;;5.65;1.83;;;29.60;92.70;;;;;;5052367;28;20420;-75
2022/07/19 10:11:21;;;;;;;4.38;1.45;;;29.70;93.60;;;;;;5036785;28;20057;-75
2022/07/19 10:13:49;;;;;;;3.47;1.55;;;29.70;94.40;;;;;;5038059;28;20034;-75
2022/07/19 10:16:21;;;;;;;4.68;1.80;;;29.60;95.40;;;;;;5036128;28;20515;-76
2022/07/19 10:19:08;;;;;;;4.57;1.40;;;29.80;94.10;;;;;;5032245;28;20069;-76
2022/07/19 10:21:35;;;;;;;4.63;1.48;;;29.80;94.50;;;;;;5039856;28;20079;-75
2022/07/19 10:24:02;;;;;;;6.60;1.70;;;29.80;94.00;;;;;;5042887;28;20048;-75
2022/07/19 10:26:35;;;;;;;3.35;1.80;;;29.80;91.10;;;;;;5014286;28;20602;-75
2022/07/19 10:29:08;;;;;;;6.82;1.60;;;29.90;91.00;;;;;;5032438;28;20095;-76
2022/07/19 10:31:37;;;;;;;2.92;1.77;;;30.00;92.10;;;;;;5039430;28;20049;-75
2022/07/19 10:34:07;;;;;;;4.50;1.67;;;30.20;89.50;;;;;;5033287;28;20875;-75
2022/07/19 10:36:43;;;;;;;4.25;1.60;;;30.10;91.90;;;;;;5023824;28;20409;-75
2022/07/19 10:39:18;;;;;;;6.65;1.70;;;30.30;92.30;;;;;;5038847;28;20404;-75
2022/07/19 10:42:06;;;;;;;2.15;1.33;;;30.30;91.20;;;;;;5037614;28;20451;-75
2022/07/19 10:44:33;;;;;;;7.15;1.50;;;30.30;90.70;;;;;;5039192;28;20037;-75
2022/07/19 10:46:59;;;;;;;4.00;1.25;;;30.40;87.80;;;;;;5021215;28;20053;-75
2022/07/19 10:49:44;;;;;;;9.18;1.58;;;30.40;91.30;;;;;;5034845;28;20385;-75
2022/07/19 10:52:28;;;;;;;3.55;1.50;;;30.40;90.70;;;;;;5037193;28;20041;-75
2022/07/19 10:55:16;;;;;;;3.15;1.30;;;30.60;89.70;;;;;;5039070;28;20083;-76
2022/07/19 10:57:43;;;;;;;5.65;1.85;;;30.80;85.00;;;;;;5033972;28;20052;-75
2022/07/19 11:00:22;;;;;;;3.33;1.58;;;30.80;83.00;;;;;;5034685;28;20076;-76
2022/07/19 11:02:49;;;;;;;4.15;1.45;;;30.80;87.50;;;;;;5039971;28;20471;-76
2022/07/19 11:05:25;;;;;;;4.85;1.70;;;31.00;81.70;;;;;;5038462;28;20036;-75
2022/07/19 11:07:53;;;;;;;3.33;1.63;;;31.10;81.30;;;;;;5019414;28;20049;-75
2022/07/19 11:10:27;;;;;;;3.60;1.63;;;31.10;82.80;;;;;;5039017;28;20511;-76
2022/07/19 11:12:53;;;;;;;3.88;1.50;;;31.00;83.30;;;;;;5045930;28;20041;-77
2022/07/19 11:15:19;;;;;;;3.78;1.20;;;30.90;83.00;;;;;;5036213;28;20045;-77
2022/07/19 11:17:59;;;;;;;6.32;1.50;;;30.90;82.10;;;;;;5021924;28;20049;-76
2022/07/19 11:20:31;;;;;;;3.42;1.48;;;31.10;84.60;;;;;;5038833;28;20472;-73
2022/07/19 11:22:59;;;;;;;2.88;1.40;;;31.00;79.70;;;;;;5032276;28;20065;-74
2022/07/19 11:25:38;;;;;;;3.58;1.73;;;31.20;79.30;;;;;;5048439;28;20072;-74
2022/07/19 11:28:05;;;;;;;3.00;1.00;;;31.20;78.10;;;;;;5028235;28;20041;-73
2022/07/19 11:30:35;;;;;;;2.05;1.08;;;31.10;81.30;;;;;;5037881;28;20094;-75
2022/07/19 11:33:04;;;;;;;6.55;1.50;;;31.20;77.90;;;;;;5030548;28;20040;-74
2022/07/19 11:35:30;;;;;;;4.07;1.33;;;31.20;77.70;;;;;;5044588;28;20044;-74
2022/07/19 11:37:58;;;;;;;4.13;1.23;;;31.20;80.10;;;;;;5014945;28;20129;-74
2022/07/19 11:40:31;;;;;;;1.90;0.93;;;31.20;78.00;;;;;;5035813;28;20093;-74
2022/07/19 11:42:57;;;;;;;5.75;1.35;;;31.30;78.60;;;;;;5026978;28;20037;-74
2022/07/19 11:45:25;;;;;;;6.43;1.15;;;31.40;75.60;;;;;;5048148;28;20048;-75
2022/07/19 11:47:54;;;;;;;4.03;1.05;;;31.30;78.10;;;;;;5022952;28;20038;-76
2022/07/19 11:50:22;;;;;;;2.08;1.00;;;31.40;75.10;;;;;;5032574;28;20041;-74
2022/07/19 11:52:48;;;;;;;4.00;1.17;;;31.50;76.10;;;;;;5031654;28;20142;-74
2022/07/19 11:55:15;;;;;;;5.10;1.05;;;31.50;76.10;;;;;;5033541;28;20068;-75
2022/07/19 11:57:41;;;;;;;2.63;1.00;;;31.50;74.50;;;;;;5034294;28;20122;-75
2022/07/19 12:00:10;;;;;;;2.65;1.10;;;31.50;73.50;;;;;;5051265;28;20095;-75
2022/07/19 12:02:55;;;;;;;3.92;1.10;;;31.60;75.30;;;;;;5051057;28;20514;-74
2022/07/19 12:05:22;;;;;;;3.28;0.70;;;31.60;73.80;;;;;;5038511;28;20115;-75
2022/07/19 12:07:48;;;;;;;4.28;0.82;;;31.60;72.90;;;;;;5024123;28;20052;-76
2022/07/19 12:10:44;;;;;;;3.58;0.90;;;31.60;73.30;;;;;;5047479;28;20057;-75
2022/07/19 12:13:15;;;;;;;3.33;1.10;;;31.60;70.90;;;;;;5047795;28;20044;-75
2022/07/19 12:15:49;;;;;;;1.80;1.10;;;31.70;72.80;;;;;;5046138;28;20051;-74
2022/07/19 12:18:18;;;;;;;2.30;0.82;;;31.90;69.60;;;;;;5023996;28;20041;-74
2022/07/19 12:20:45;;;;;;;2.70;0.90;;;31.80;72.50;;;;;;5039312;28;20508;-74
2022/07/19 12:23:21;;;;;;;2.38;0.77;;;31.80;72.30;;;;;;5042238;28;20056;-75
2022/07/19 12:25:49;;;;;;;3.72;1.00;;;31.80;71.90;;;;;;5042983;28;20049;-75
2022/07/19 12:28:14;;;;;;;4.13;1.00;;;31.90;68.50;;;;;;5006232;28;20132;-76
2022/07/19 12:30:40;;;;;;;3.45;0.77;;;32.20;70.40;;;;;;5043193;28;20128;-75
2022/07/19 12:33:13;;;;;;;2.85;1.00;;;32.00;70.30;;;;;;5049905;28;20045;-75
2022/07/19 12:35:47;;;;;;;1.92;0.85;;;32.10;68.00;;;;;;5038668;28;20092;-75
2022/07/19 12:38:14;;;;;;;2.65;0.70;;;32.30;67.00;;;;;;5024507;28;20128;-74
2022/07/19 12:40:42;;;;;;;2.83;0.77;;;32.40;67.30;;;;;;5048393;28;20050;-74
2022/07/19 12:43:12;;;;;;;0.98;0.80;;;32.40;66.30;;;;;;5040631;28;20049;-75
2022/07/19 12:45:46;;;;;;;2.85;1.00;;;32.30;65.30;;;;;;5053999;28;20048;-76
2022/07/19 12:48:14;;;;;;;2.65;0.73;;;32.40;67.50;;;;;;5016299;28;20155;-75